createdAt,value
2017-03-20T00:01:04.546Z,84.58
2017-03-20T00:02:14.803Z,84.48
2017-03-20T00:03:24.752Z,84.77
2017-03-20T00:04:35.007Z,84.48
2017-03-20T00:05:44.632Z,84.77
2017-03-20T00:06:54.258Z,84.48
2017-03-20T00:08:04.202Z,84.48
2017-03-20T00:09:14.154Z,84.48
2017-03-20T00:10:24.420Z,84.48
2017-03-20T00:11:34.367Z,84.77
2017-03-20T00:12:44.341Z,83.72
2017-03-20T00:13:54.293Z,83.91
2017-03-20T00:15:04.552Z,84.01
2017-03-20T00:16:14.823Z,84.2
2017-03-20T00:17:24.765Z,84.2
2017-03-20T00:18:34.715Z,83.82
2017-03-20T00:19:44.668Z,83.72
2017-03-20T00:20:54.927Z,84.2
2017-03-20T00:22:04.872Z,83.44
2017-03-20T00:23:14.813Z,83.63
2017-03-20T00:24:25.078Z,83.63
2017-03-20T00:25:35.022Z,84.29
2017-03-20T00:26:45.275Z,84.1
2017-03-20T00:27:54.897Z,83.82
2017-03-20T00:29:04.530Z,84.2
2017-03-20T00:30:14.494Z,84.1
2017-03-20T00:31:24.753Z,84.77
2017-03-20T00:32:35.017Z,84.77
2017-03-20T00:33:44.975Z,84.48
2017-03-20T00:34:54.918Z,84.58
2017-03-20T00:36:04.868Z,84.67
2017-03-20T00:37:14.493Z,84.86
2017-03-20T00:38:24.760Z,84.58
2017-03-20T00:39:35.024Z,85.14
2017-03-20T00:40:45.284Z,84.58
2017-03-20T00:41:55.228Z,85.05
2017-03-20T00:43:05.179Z,84.67
2017-03-20T00:44:15.445Z,84.77
2017-03-20T00:45:25.395Z,84.1
2017-03-20T00:46:35.649Z,84.1
2017-03-20T00:47:45.907Z,83.82
2017-03-20T00:48:55.859Z,84.77
2017-03-20T00:50:06.116Z,84.48
2017-03-20T00:51:16.060Z,84.48
2017-03-20T00:52:26.005Z,84.67
2017-03-20T00:53:36.267Z,84.39
2017-03-20T00:54:46.527Z,84.95
2017-03-20T00:55:56.476Z,85.52
2017-03-20T00:57:06.738Z,84.67
2017-03-20T00:58:16.682Z,85.24
2017-03-20T00:59:26.631Z,84.86
2017-03-20T01:00:36.583Z,85.52
2017-03-20T01:01:46.212Z,85.24
2017-03-20T01:02:56.166Z,85.33
2017-03-20T01:04:06.124Z,85.71
2017-03-20T01:05:16.384Z,85.71
2017-03-20T01:06:26.639Z,86.09
2017-03-20T01:07:36.590Z,85.8
2017-03-20T01:08:46.542Z,85.42
2017-03-20T01:09:56.803Z,85.9
2017-03-20T01:11:06.118Z,87.41
2017-03-20T01:12:16.374Z,87.13
2017-03-20T01:13:26.318Z,86.75
2017-03-20T01:14:35.949Z,86.66
2017-03-20T01:15:46.204Z,86.66
2017-03-20T01:16:56.457Z,87.7
2017-03-20T01:18:06.091Z,87.51
2017-03-20T01:19:16.353Z,86.94
2017-03-20T01:20:26.614Z,86.66
2017-03-20T01:21:36.879Z,86.75
2017-03-20T01:22:46.822Z,87.13
2017-03-20T01:23:57.082Z,86.56
2017-03-20T01:25:07.024Z,87.04
2017-03-20T01:26:16.970Z,87.04
2017-03-20T01:27:26.601Z,86.94
2017-03-20T01:28:36.879Z,86.94
2017-03-20T01:29:46.825Z,87.23
2017-03-20T01:30:57.082Z,86.94
2017-03-20T01:32:06.714Z,87.04
2017-03-20T01:33:16.974Z,87.04
2017-03-20T01:34:26.921Z,86.37
2017-03-20T01:35:37.177Z,86.56
2017-03-20T01:36:47.117Z,86.47
2017-03-20T01:37:57.375Z,86.28
2017-03-20T01:39:07.010Z,85.9
2017-03-20T01:40:17.264Z,86.18
2017-03-20T01:41:27.523Z,85.9
2017-03-20T01:42:37.504Z,85.99
2017-03-20T01:43:47.763Z,85.99
2017-03-20T01:44:57.755Z,86.56
2017-03-20T01:46:07.697Z,86.66
2017-03-20T01:47:17.640Z,86.37
2017-03-20T01:48:27.584Z,86.66
2017-03-20T01:49:37.530Z,86.66
2017-03-20T01:50:47.476Z,86.85
2017-03-20T01:51:57.731Z,87.04
2017-03-20T01:53:07.363Z,87.04
2017-03-20T01:54:17.624Z,87.13
2017-03-20T01:55:27.575Z,87.41
2017-03-20T01:56:37.846Z,87.41
2017-03-20T01:57:47.480Z,87.41
2017-03-20T01:58:57.743Z,87.6
2017-03-20T02:00:07.694Z,86.75
2017-03-20T02:01:17.982Z,87.13
2017-03-20T02:02:28.244Z,87.04
2017-03-20T02:03:38.522Z,86.66
2017-03-20T02:04:48.156Z,86.75
2017-03-20T02:05:58.426Z,86.75
2017-03-20T02:07:08.052Z,87.41
2017-03-20T02:08:18.344Z,87.6
2017-03-20T02:09:28.600Z,86.75
2017-03-20T02:10:38.548Z,87.13
2017-03-20T02:11:48.482Z,86.66
2017-03-20T02:12:58.739Z,87.41
2017-03-20T02:14:09.042Z,87.32
2017-03-20T02:15:18.990Z,87.23
2017-03-20T02:16:28.932Z,86.75
2017-03-20T02:17:38.560Z,86.85
2017-03-20T02:18:48.502Z,87.32
2017-03-20T02:19:58.761Z,87.32
2017-03-20T02:21:08.708Z,87.13
2017-03-20T02:22:18.655Z,87.32
2017-03-20T02:23:28.914Z,87.6
2017-03-20T02:24:39.174Z,87.13
2017-03-20T02:25:49.443Z,87.32
2017-03-20T02:26:59.384Z,87.32
2017-03-20T02:28:09.645Z,87.32
2017-03-20T02:29:19.594Z,87.41
2017-03-20T02:30:29.544Z,87.6
2017-03-20T02:31:39.486Z,87.51
2017-03-20T02:32:49.747Z,87.32
2017-03-20T02:33:59.688Z,87.98
2017-03-20T02:35:09.003Z,88.45
2017-03-20T02:36:18.639Z,89.02
2017-03-20T02:37:28.584Z,88.93
2017-03-20T02:38:38.534Z,89.59
2017-03-20T02:39:48.161Z,90.63
2017-03-20T02:40:58.427Z,90.53
2017-03-20T02:42:08.370Z,90.91
2017-03-20T02:43:18.641Z,91.01
2017-03-20T02:44:28.902Z,90.72
2017-03-20T02:45:38.839Z,91.29
2017-03-20T02:46:48.784Z,91.1
2017-03-20T02:47:59.046Z,91.2
2017-03-20T02:49:08.999Z,91.2
2017-03-20T02:50:19.265Z,91.77
2017-03-20T02:51:29.246Z,91.48
2017-03-20T02:52:39.193Z,91.53
2017-03-20T02:53:49.132Z,92.14
2017-03-20T02:54:59.395Z,92.33
2017-03-20T02:56:09.657Z,92.85
2017-03-20T02:57:19.913Z,93.04
2017-03-20T02:58:30.170Z,93.75
2017-03-20T02:59:39.807Z,94.04
2017-03-20T03:00:50.055Z,93.56
2017-03-20T03:01:59.694Z,93.99
2017-03-20T03:03:09.948Z,93.89
2017-03-20T03:04:20.211Z,93.61
2017-03-20T03:05:30.464Z,93.51
2017-03-20T03:06:40.136Z,93.51
2017-03-20T03:07:50.386Z,93.66
2017-03-20T03:09:00.342Z,93.66
2017-03-20T03:10:10.286Z,93.51
2017-03-20T03:11:20.227Z,93.99
2017-03-20T03:12:30.488Z,93.7
2017-03-20T03:13:40.442Z,94.18
2017-03-20T03:14:50.079Z,94.56
2017-03-20T03:16:00.352Z,94.65
2017-03-20T03:17:10.294Z,94.46
2017-03-20T03:18:19.927Z,94.65
2017-03-20T03:19:30.202Z,94.84
2017-03-20T03:20:40.146Z,95.12
2017-03-20T03:21:50.082Z,95.21
2017-03-20T03:23:00.331Z,95.21
2017-03-20T03:24:10.278Z,94.84
2017-03-20T03:25:20.224Z,95.12
2017-03-20T03:26:30.163Z,95.21
2017-03-20T03:27:40.105Z,95.59
2017-03-20T03:28:49.739Z,95.21
2017-03-20T03:29:59.690Z,95.4
2017-03-20T03:31:09.323Z,95.12
2017-03-20T03:32:19.574Z,95.31
2017-03-20T03:33:29.213Z,95.4
2017-03-20T03:34:39.164Z,95.59
2017-03-20T03:35:49.420Z,95.88
2017-03-20T03:36:59.688Z,95.78
2017-03-20T03:38:09.323Z,95.78
2017-03-20T03:39:19.590Z,96.07
2017-03-20T03:40:29.850Z,95.78
2017-03-20T03:41:40.108Z,96.16
2017-03-20T03:42:50.368Z,96.07
2017-03-20T03:44:00.658Z,95.97
2017-03-20T03:45:10.634Z,95.88
2017-03-20T03:46:20.259Z,95.21
2017-03-20T03:47:30.213Z,94.93
2017-03-20T03:48:40.155Z,95.31
2017-03-20T03:49:50.427Z,95.5
2017-03-20T03:51:00.684Z,95.21
2017-03-20T03:52:10.941Z,95.21
2017-03-20T03:53:21.197Z,94.56
2017-03-20T03:54:31.143Z,95.03
2017-03-20T03:55:41.397Z,94.84
2017-03-20T03:56:50.715Z,94.93
2017-03-20T03:58:00.973Z,94.93
2017-03-20T03:59:11.233Z,94.84
2017-03-20T04:00:21.175Z,95.03
2017-03-20T04:01:31.430Z,94.42
2017-03-20T04:02:41.691Z,94.13
2017-03-20T04:03:51.646Z,94.65
2017-03-20T04:05:01.604Z,94.32
2017-03-20T04:06:11.545Z,94.23
2017-03-20T04:07:21.173Z,93.85
2017-03-20T04:08:31.105Z,93.75
2017-03-20T04:09:40.735Z,93.85
2017-03-20T04:10:50.718Z,93.75
2017-03-20T04:12:00.664Z,93.37
2017-03-20T04:13:10.920Z,93.75
2017-03-20T04:14:21.181Z,93.18
2017-03-20T04:15:31.166Z,93.09
2017-03-20T04:16:41.114Z,92.9
2017-03-20T04:17:51.061Z,93.28
2017-03-20T04:19:01.325Z,92.9
2017-03-20T04:20:10.954Z,93.47
2017-03-20T04:21:21.208Z,92.8
2017-03-20T04:22:31.456Z,92.9
2017-03-20T04:23:41.090Z,92.52
2017-03-20T04:24:51.365Z,92.8
2017-03-20T04:26:01.640Z,93.18
2017-03-20T04:27:11.585Z,92.8
2017-03-20T04:28:21.569Z,92.99
2017-03-20T04:29:31.831Z,92.61
2017-03-20T04:30:41.796Z,92.19
2017-03-20T04:31:52.056Z,92
2017-03-20T04:33:01.688Z,92.14
2017-03-20T04:34:11.959Z,91.96
2017-03-20T04:35:22.219Z,92.05
2017-03-20T04:36:32.162Z,91.58
2017-03-20T04:37:42.105Z,91.67
2017-03-20T04:38:52.051Z,91.2
2017-03-20T04:40:02.004Z,90.91
2017-03-20T04:41:11.943Z,90.44
2017-03-20T04:42:22.242Z,90.16
2017-03-20T04:43:32.190Z,89.97
2017-03-20T04:44:42.458Z,90.34
2017-03-20T04:45:52.394Z,89.97
2017-03-20T04:47:02.332Z,90.25
2017-03-20T04:48:12.283Z,90.06
2017-03-20T04:49:21.915Z,89.97
2017-03-20T04:50:32.182Z,89.97
2017-03-20T04:51:42.441Z,89.78
2017-03-20T04:52:52.706Z,89.78
2017-03-20T04:54:02.647Z,89.87
2017-03-20T04:55:12.902Z,89.59
2017-03-20T04:56:23.154Z,89.59
2017-03-20T04:57:33.090Z,89.4
2017-03-20T04:58:43.071Z,89.5
2017-03-20T04:59:53.334Z,89.4
2017-03-20T05:01:03.284Z,89.4
2017-03-20T05:02:13.535Z,89.97
2017-03-20T05:03:23.789Z,89.59
2017-03-20T05:04:34.050Z,89.69
2017-03-20T05:05:44.311Z,89.59
2017-03-20T05:06:54.561Z,89.78
2017-03-20T05:08:04.191Z,89.4
2017-03-20T05:09:14.141Z,89.5
2017-03-20T05:10:24.090Z,89.59
2017-03-20T05:11:34.340Z,89.5
2017-03-20T05:12:44.275Z,89.87
2017-03-20T05:13:53.904Z,89.5
2017-03-20T05:15:04.176Z,89.97
2017-03-20T05:16:14.138Z,89.97
2017-03-20T05:17:24.393Z,89.31
2017-03-20T05:18:34.655Z,89.78
2017-03-20T05:19:44.287Z,89.59
2017-03-20T05:20:53.919Z,89.5
2017-03-20T05:22:04.170Z,89.5
2017-03-20T05:23:14.426Z,89.78
2017-03-20T05:24:24.378Z,89.78
2017-03-20T05:25:34.641Z,89.87
2017-03-20T05:26:44.585Z,89.78
2017-03-20T05:27:54.841Z,89.78
2017-03-20T05:29:05.100Z,89.97
2017-03-20T05:30:15.371Z,89.69
2017-03-20T05:31:25.310Z,89.21
2017-03-20T05:32:35.571Z,88.93
2017-03-20T05:33:45.833Z,89.02
2017-03-20T05:34:56.090Z,89.02
2017-03-20T05:36:06.076Z,88.83
2017-03-20T05:37:16.020Z,88.83
2017-03-20T05:38:26.276Z,89.02
2017-03-20T05:39:36.538Z,88.83
2017-03-20T05:40:45.854Z,89.21
2017-03-20T05:41:56.113Z,88.83
2017-03-20T05:43:05.743Z,88.83
2017-03-20T05:44:15.690Z,88.83
2017-03-20T05:45:25.948Z,88.64
2017-03-20T05:46:36.204Z,88.55
2017-03-20T05:47:46.154Z,88.83
2017-03-20T05:48:56.102Z,88.93
2017-03-20T05:50:06.043Z,88.74
2017-03-20T05:51:16.291Z,88.64
2017-03-20T05:52:26.270Z,88.83
2017-03-20T05:53:36.576Z,88.55
2017-03-20T05:54:46.541Z,88.55
2017-03-20T05:55:56.485Z,88.64
2017-03-20T05:57:06.759Z,88.64
2017-03-20T05:58:17.030Z,88.36
2017-03-20T05:59:26.664Z,89.21
2017-03-20T06:00:38.983Z,88.45
2017-03-20T06:01:48.608Z,88.74
2017-03-20T06:02:58.862Z,88.55
2017-03-20T06:04:09.124Z,88.45
2017-03-20T06:05:19.387Z,88.26
2017-03-20T06:06:29.360Z,89.31
2017-03-20T06:07:39.660Z,88.26
2017-03-20T06:08:49.934Z,88.64
2017-03-20T06:09:59.887Z,89.02
2017-03-20T06:11:09.828Z,88.36
2017-03-20T06:12:19.780Z,88.07
2017-03-20T06:13:29.722Z,87.51
2017-03-20T06:14:39.998Z,87.6
2017-03-20T06:15:50.294Z,87.23
2017-03-20T06:17:00.547Z,87.41
2017-03-20T06:18:10.494Z,87.6
2017-03-20T06:19:20.444Z,87.6
2017-03-20T06:20:30.707Z,87.98
2017-03-20T06:21:40.653Z,87.23
2017-03-20T06:22:50.593Z,87.41
2017-03-20T06:24:00.860Z,87.32
2017-03-20T06:25:10.809Z,87.13
2017-03-20T06:26:21.070Z,87.79
2017-03-20T06:27:31.328Z,87.6
2017-03-20T06:28:40.645Z,87.23
2017-03-20T06:29:50.904Z,87.23
2017-03-20T06:31:01.167Z,87.6
2017-03-20T06:32:11.425Z,87.51
2017-03-20T06:33:21.691Z,87.88
2017-03-20T06:34:31.948Z,87.7
2017-03-20T06:35:41.886Z,87.13
2017-03-20T06:36:51.832Z,87.23
2017-03-20T06:38:01.782Z,87.13
2017-03-20T06:39:12.039Z,87.04
2017-03-20T06:40:21.995Z,87.41
2017-03-20T06:41:31.939Z,87.6
2017-03-20T06:42:42.201Z,87.32
2017-03-20T06:43:51.833Z,87.41
2017-03-20T06:45:01.786Z,87.51
2017-03-20T06:46:11.724Z,87.41
2017-03-20T06:47:21.984Z,87.7
2017-03-20T06:48:32.259Z,87.13
2017-03-20T06:49:42.253Z,87.23
2017-03-20T06:50:52.201Z,87.13
2017-03-20T06:52:02.456Z,87.13
2017-03-20T06:53:12.394Z,86.94
2017-03-20T06:54:22.650Z,86.37
2017-03-20T06:55:32.904Z,86.75
2017-03-20T06:56:43.163Z,86.41
2017-03-20T06:57:53.416Z,86.85
2017-03-20T06:59:03.351Z,87.04
2017-03-20T07:00:13.301Z,86.37
2017-03-20T07:01:23.244Z,85.75
2017-03-20T07:02:33.179Z,85.61
2017-03-20T07:03:43.439Z,86.13
2017-03-20T07:04:53.703Z,85.71
2017-03-20T07:06:03.658Z,85.57
2017-03-20T07:07:13.292Z,85.75
2017-03-20T07:08:22.923Z,85.57
2017-03-20T07:09:32.917Z,85.19
2017-03-20T07:10:43.235Z,85.28
2017-03-20T07:11:53.493Z,85.47
2017-03-20T07:13:03.439Z,85.28
2017-03-20T07:14:13.389Z,85.28
2017-03-20T07:15:23.648Z,84.81
2017-03-20T07:16:33.594Z,84.61
2017-03-20T07:17:43.225Z,84.71
2017-03-20T07:18:53.484Z,84.81
2017-03-20T07:20:03.752Z,84.33
2017-03-20T07:21:13.699Z,84.9
2017-03-20T07:22:23.643Z,85.09
2017-03-20T07:23:33.585Z,84.52
2017-03-20T07:24:43.216Z,84.52
2017-03-20T07:25:53.467Z,85
2017-03-20T07:27:03.418Z,84.81
2017-03-20T07:28:13.379Z,84.71
2017-03-20T07:29:23.635Z,84.52
2017-03-20T07:30:33.896Z,84.05
2017-03-20T07:31:44.147Z,84.61
2017-03-20T07:32:54.401Z,84.61
2017-03-20T07:34:04.667Z,83.95
2017-03-20T07:35:14.648Z,84.52
2017-03-20T07:36:24.581Z,84.61
2017-03-20T07:37:34.526Z,84.61
2017-03-20T07:38:44.839Z,84.81
2017-03-20T07:39:55.109Z,84.05
2017-03-20T07:41:05.372Z,83.86
2017-03-20T07:42:15.315Z,83.76
2017-03-20T07:43:25.263Z,83.67
2017-03-20T07:44:35.203Z,83.67
2017-03-20T07:45:45.148Z,83.95
2017-03-20T07:46:55.400Z,84.05
2017-03-20T07:48:05.653Z,83.76
2017-03-20T07:49:15.325Z,84.05
2017-03-20T07:50:25.597Z,83.2
2017-03-20T07:51:35.542Z,83.39
2017-03-20T07:52:45.485Z,83.86
2017-03-20T07:53:55.746Z,83.1
2017-03-20T07:55:06.009Z,83.76
2017-03-20T07:56:16.264Z,83.95
2017-03-20T07:57:26.524Z,83.95
2017-03-20T07:58:36.469Z,84.05
2017-03-20T07:59:46.418Z,84.05
2017-03-20T08:00:56.682Z,83.95
2017-03-20T08:02:06.312Z,83.86
2017-03-20T08:03:16.575Z,83.95
2017-03-20T08:04:26.836Z,84.05
2017-03-20T08:05:37.093Z,83.58
2017-03-20T08:06:47.356Z,83.29
2017-03-20T08:07:57.299Z,83.58
2017-03-20T08:09:07.242Z,83.1
2017-03-20T08:10:17.505Z,83.1
2017-03-20T08:11:27.443Z,83.29
2017-03-20T08:12:37.699Z,84.23
2017-03-20T08:13:47.645Z,83.1
2017-03-20T08:14:57.912Z,83.29
2017-03-20T08:16:07.856Z,83.29
2017-03-20T08:17:17.794Z,82.95
2017-03-20T08:18:28.067Z,83.01
2017-03-20T08:19:38.028Z,83.24
2017-03-20T08:20:48.282Z,83.14
2017-03-20T08:21:58.542Z,83.33
2017-03-20T08:23:08.494Z,82.01
2017-03-20T08:24:18.441Z,81.44
2017-03-20T08:25:28.400Z,81.72
2017-03-20T08:26:38.347Z,82.67
2017-03-20T08:27:48.285Z,82.1
2017-03-20T08:28:58.285Z,81.72
2017-03-20T08:30:08.235Z,81.63
2017-03-20T08:31:18.495Z,81.44
2017-03-20T08:32:28.429Z,81.44
2017-03-20T08:33:38.374Z,81.82
2017-03-20T08:34:48.321Z,81.34
2017-03-20T08:35:58.592Z,81.44
2017-03-20T08:37:08.218Z,81.44
2017-03-20T08:38:18.169Z,81.53
2017-03-20T08:39:27.168Z,82.86
2017-03-20T08:40:37.463Z,81.92
2017-03-20T08:41:47.401Z,81.44
2017-03-20T08:42:57.659Z,82.01
2017-03-20T08:44:07.613Z,81.44
2017-03-20T08:45:17.875Z,81.72
2017-03-20T08:46:28.132Z,81.53
2017-03-20T08:47:38.094Z,82.2
2017-03-20T08:48:48.353Z,82.29
2017-03-20T08:49:57.989Z,81.92
2017-03-20T08:51:07.940Z,82.72
2017-03-20T08:52:18.249Z,82.53
2017-03-20T08:53:27.892Z,82.53
2017-03-20T08:54:37.841Z,83.1
2017-03-20T08:55:48.105Z,83.1
2017-03-20T08:56:58.056Z,83.95
2017-03-20T08:58:08.315Z,84.23
2017-03-20T08:59:18.283Z,83.86
2017-03-20T09:00:28.236Z,83.86
2017-03-20T09:01:38.496Z,84.23
2017-03-20T09:02:48.754Z,83.58
2017-03-20T09:03:58.702Z,83.2
2017-03-20T09:05:08.649Z,83.29
2017-03-20T09:06:18.908Z,83.2
2017-03-20T09:07:28.544Z,83.1
2017-03-20T09:08:38.495Z,83.01
2017-03-20T09:09:48.437Z,82.82
2017-03-20T09:10:58.688Z,83.01
2017-03-20T09:12:08.635Z,83.29
2017-03-20T09:13:18.261Z,82.72
2017-03-20T09:14:27.921Z,83.24
2017-03-20T09:15:38.191Z,82.67
2017-03-20T09:16:48.448Z,82.39
2017-03-20T09:17:58.703Z,82.67
2017-03-20T09:19:08.662Z,82.57
2017-03-20T09:20:18.622Z,82.2
2017-03-20T09:21:28.558Z,83.05
2017-03-20T09:22:38.816Z,83.24
2017-03-20T09:23:49.074Z,82.95
2017-03-20T09:24:59.341Z,82.48
2017-03-20T09:26:09.282Z,82.48
2017-03-20T09:27:19.534Z,82.86
2017-03-20T09:28:29.790Z,82.48
2017-03-20T09:29:40.053Z,82.67
2017-03-20T09:30:50.315Z,83.14
2017-03-20T09:31:59.942Z,83.33
2017-03-20T09:33:09.882Z,82.57
2017-03-20T09:34:20.149Z,83.24
2017-03-20T09:35:30.095Z,82.29
2017-03-20T09:36:40.038Z,82.48
2017-03-20T09:37:50.048Z,81.92
2017-03-20T09:39:00.318Z,82.1
2017-03-20T09:40:10.266Z,82.01
2017-03-20T09:41:20.212Z,81.92
2017-03-20T09:42:30.465Z,81.34
2017-03-20T09:43:40.108Z,81.63
2017-03-20T09:44:50.060Z,81.34
2017-03-20T09:46:00.002Z,81.34
2017-03-20T09:47:10.253Z,81.25
2017-03-20T09:48:20.528Z,81.53
2017-03-20T09:49:30.479Z,81.67
2017-03-20T09:50:40.417Z,81.57
2017-03-20T09:51:50.672Z,81.76
2017-03-20T09:53:00.612Z,81.01
2017-03-20T09:54:10.870Z,81.2
2017-03-20T09:55:20.496Z,81.38
2017-03-20T09:56:30.753Z,81.1
2017-03-20T09:57:41.059Z,81.1
2017-03-20T09:58:51.009Z,80.72
2017-03-20T10:00:01.273Z,80.82
2017-03-20T10:01:11.245Z,80.72
2017-03-20T10:02:20.880Z,80.53
2017-03-20T10:03:30.862Z,80.53
2017-03-20T10:04:41.138Z,80.1
2017-03-20T10:05:51.398Z,79.91
2017-03-20T10:07:01.654Z,79.63
2017-03-20T10:08:11.601Z,79.63
2017-03-20T10:09:21.865Z,78.77
2017-03-20T10:10:31.833Z,79.06
2017-03-20T10:11:41.778Z,79.06
2017-03-20T10:12:52.042Z,79.06
2017-03-20T10:14:02.304Z,78.87
2017-03-20T10:15:12.251Z,79.06
2017-03-20T10:16:22.208Z,78.87
2017-03-20T10:17:32.467Z,78.3
2017-03-20T10:18:42.418Z,78.24
2017-03-20T10:19:52.684Z,78.53
2017-03-20T10:21:02.630Z,77.48
2017-03-20T10:22:12.886Z,77.77
2017-03-20T10:23:23.232Z,77.39
2017-03-20T10:24:33.184Z,77.77
2017-03-20T10:25:43.447Z,77.96
2017-03-20T10:26:53.705Z,77.48
2017-03-20T10:28:03.344Z,76.73
2017-03-20T10:29:13.291Z,76.44
2017-03-20T10:31:45.355Z,76.63
2017-03-20T10:32:55.300Z,76.44
2017-03-20T10:34:05.565Z,76.34
2017-03-20T10:35:15.833Z,76.44
2017-03-20T10:36:26.237Z,76.82
2017-03-20T10:37:36.193Z,76.34
2017-03-20T10:38:46.464Z,76.92
2017-03-20T10:39:56.720Z,76.25
2017-03-20T10:41:06.672Z,75.96
2017-03-20T10:42:20.290Z,76.34
2017-03-20T10:43:30.235Z,76.92
2017-03-20T10:44:40.189Z,76.44
2017-03-20T10:45:50.157Z,76.25
2017-03-20T10:47:00.428Z,76.73
2017-03-20T10:48:10.378Z,76.54
2017-03-20T10:49:20.330Z,76.82
2017-03-20T10:50:30.598Z,76.54
2017-03-20T10:51:40.854Z,76.57
2017-03-20T10:52:50.493Z,76.57
2017-03-20T10:54:00.451Z,76.82
2017-03-20T10:55:10.085Z,76.54
2017-03-20T10:56:20.035Z,76.29
2017-03-20T10:57:30.296Z,76.95
2017-03-20T10:58:40.567Z,76.86
2017-03-20T10:59:50.839Z,76.76
2017-03-20T11:01:01.103Z,76.01
2017-03-20T11:02:11.072Z,76.2
2017-03-20T11:03:21.025Z,76.57
2017-03-20T11:04:31.285Z,76.67
2017-03-20T11:05:41.552Z,76.2
2017-03-20T11:06:51.807Z,75.24
2017-03-20T11:08:02.067Z,75.24
2017-03-20T11:09:12.332Z,75.91
2017-03-20T11:10:21.970Z,75.53
2017-03-20T11:11:32.224Z,75.05
2017-03-20T11:12:41.857Z,74.43
2017-03-20T11:13:51.490Z,74.33
2017-03-20T11:15:01.757Z,73.9
2017-03-20T11:16:11.706Z,73.14
2017-03-20T11:17:21.654Z,72.51
2017-03-20T11:18:31.927Z,71.41
2017-03-20T11:19:41.888Z,69.54
2017-03-20T11:20:51.834Z,69.38
2017-03-20T11:22:01.470Z,68.52
2017-03-20T11:23:11.417Z,66.75
2017-03-20T11:24:21.685Z,66.11
2017-03-20T11:25:31.946Z,66.02
2017-03-20T11:26:41.581Z,65.67
2017-03-20T11:27:51.852Z,64.85
2017-03-20T11:29:02.131Z,64.28
2017-03-20T11:30:12.400Z,62.75
2017-03-20T11:31:22.351Z,61.8
2017-03-20T11:32:32.613Z,61.16
2017-03-20T11:33:42.262Z,59.28
2017-03-20T11:34:51.911Z,58.9
2017-03-20T11:36:01.869Z,59.38
2017-03-20T11:37:12.153Z,58.83
2017-03-20T11:38:22.122Z,58.83
2017-03-20T11:39:31.762Z,57.71
2017-03-20T11:40:41.403Z,56.88
2017-03-20T11:41:51.357Z,55.93
2017-03-20T11:43:01.640Z,56.5
2017-03-20T11:44:11.283Z,55.45
2017-03-20T11:45:20.929Z,54.33
2017-03-20T11:46:31.202Z,54.04
2017-03-20T11:47:41.167Z,53.82
2017-03-20T11:48:51.131Z,53.53
2017-03-20T11:50:00.471Z,53.44
2017-03-20T11:51:10.112Z,52.48
2017-03-20T11:52:20.072Z,53.47
2017-03-20T11:53:30.334Z,52.7
2017-03-20T11:54:40.298Z,52.99
2017-03-20T11:55:50.253Z,52.25
2017-03-20T11:56:59.902Z,52.42
2017-03-20T11:58:09.556Z,52.54
2017-03-20T11:59:19.838Z,51.93
2017-03-20T12:00:29.820Z,52.48
2017-03-20T12:01:39.774Z,53.51
2017-03-20T12:02:49.732Z,52.65
2017-03-20T12:04:00.010Z,53.67
2017-03-20T12:05:09.976Z,53.39
2017-03-20T12:06:20.242Z,53.58
2017-03-20T12:07:29.575Z,53.77
2017-03-20T12:08:39.858Z,54.03
2017-03-20T12:09:49.819Z,54.7
2017-03-20T12:10:59.460Z,54.41
2017-03-20T12:12:09.738Z,54.22
2017-03-20T12:13:20.013Z,53.74
2017-03-20T12:14:29.978Z,53.93
2017-03-20T12:15:39.942Z,53.96
2017-03-20T12:16:49.894Z,54.41
2017-03-20T12:17:59.542Z,53.93
2017-03-20T12:19:09.832Z,53.49
2017-03-20T12:20:19.788Z,53.41
2017-03-20T12:21:29.744Z,51.81
2017-03-20T12:22:40.016Z,50.81
2017-03-20T12:23:49.988Z,50.56
2017-03-20T12:24:59.954Z,48.93
2017-03-20T12:26:09.914Z,49.43
2017-03-20T12:27:18.938Z,49.24
2017-03-20T12:28:28.902Z,49.24
2017-03-20T12:29:39.173Z,48.16
2017-03-20T12:30:48.502Z,49.09
2017-03-20T12:31:58.146Z,49.26
2017-03-20T12:33:08.107Z,49.33
2017-03-20T12:34:18.383Z,49.59
2017-03-20T12:35:28.339Z,49.49
2017-03-20T12:36:38.608Z,49.23
2017-03-20T12:37:48.574Z,49.9
2017-03-20T12:38:58.223Z,49.69
2017-03-20T12:40:08.492Z,50.07
2017-03-20T12:41:18.449Z,49.98
2017-03-20T12:42:28.098Z,49.88
2017-03-20T12:43:38.386Z,50.45
2017-03-20T12:44:48.035Z,51.21
2017-03-20T12:45:57.363Z,50.71
2017-03-20T12:47:07.319Z,51.19
2017-03-20T12:48:17.289Z,50.81
2017-03-20T12:49:27.570Z,50.62
2017-03-20T12:50:37.213Z,51.09
2017-03-20T12:51:47.170Z,51
2017-03-20T12:52:57.132Z,51.09
2017-03-20T12:54:06.773Z,50.71
2017-03-20T12:55:16.419Z,51.09
2017-03-20T12:56:26.061Z,51.38
2017-03-20T12:57:36.332Z,52.03
2017-03-20T12:58:46.288Z,52.4
2017-03-20T12:59:56.251Z,52.31
2017-03-20T13:01:06.541Z,52.76
2017-03-20T13:02:16.495Z,52.76
2017-03-20T13:03:26.768Z,53.81
2017-03-20T13:04:36.728Z,53.97
2017-03-20T13:05:46.678Z,53.31
2017-03-20T13:06:56.949Z,54.17
2017-03-20T13:08:06.901Z,54.17
2017-03-20T13:09:16.226Z,54.9
2017-03-20T13:10:26.183Z,55
2017-03-20T13:11:36.137Z,55.66
2017-03-20T13:12:46.405Z,56.14
2017-03-20T13:13:56.367Z,56.3
2017-03-20T13:15:06.647Z,57.26
2017-03-20T13:16:16.604Z,56.59
2017-03-20T13:17:26.553Z,55.92
2017-03-20T13:18:36.825Z,55.66
2017-03-20T13:19:47.094Z,54.55
2017-03-20T13:20:57.046Z,54.45
2017-03-20T13:22:07.001Z,54.48
2017-03-20T13:23:16.953Z,53.84
2017-03-20T13:24:27.225Z,53.58
2017-03-20T13:25:37.178Z,52.72
2017-03-20T13:26:47.125Z,52.34
2017-03-20T13:27:57.391Z,51.98
2017-03-20T13:29:07.693Z,51.12
2017-03-20T13:30:18.006Z,49.98
2017-03-20T13:31:28.271Z,50.16
2017-03-20T13:32:37.924Z,49.88
2017-03-20T13:33:48.195Z,50.45
2017-03-20T13:34:57.840Z,50.35
2017-03-20T13:36:07.801Z,50.74
2017-03-20T13:37:17.754Z,50.07
2017-03-20T13:38:27.401Z,50.45
2017-03-20T13:39:37.362Z,50.64
2017-03-20T13:40:47.314Z,50.74
2017-03-20T13:41:57.269Z,50.74
2017-03-20T13:43:07.544Z,50.52
2017-03-20T13:44:17.814Z,51
2017-03-20T13:45:27.141Z,50.71
2017-03-20T13:46:37.090Z,51.48
2017-03-20T13:47:47.360Z,51.29
2017-03-20T13:48:57.638Z,51.76
2017-03-20T13:50:07.589Z,51.95
2017-03-20T13:51:17.853Z,51.95
2017-03-20T13:52:27.500Z,52.53
2017-03-20T13:53:37.769Z,52.53
2017-03-20T13:54:48.040Z,52.79
2017-03-20T13:55:57.687Z,52.79
2017-03-20T13:57:07.955Z,52.79
2017-03-20T13:58:18.216Z,53.36
2017-03-20T13:59:27.859Z,52.69
2017-03-20T14:00:38.125Z,53.05
2017-03-20T14:01:48.390Z,54.1
2017-03-20T14:02:58.029Z,54.17
2017-03-20T14:04:07.988Z,55.12
2017-03-20T14:05:18.266Z,55.95
2017-03-20T14:06:28.538Z,55.95
2017-03-20T14:07:38.496Z,56.33
2017-03-20T14:08:48.142Z,56.04
2017-03-20T14:09:58.107Z,55.95
2017-03-20T14:11:08.054Z,56.33
2017-03-20T14:12:18.320Z,57.16
2017-03-20T14:13:28.280Z,57.26
2017-03-20T14:14:38.228Z,57.64
2017-03-20T14:15:47.870Z,57.26
2017-03-20T14:16:57.825Z,57.73
2017-03-20T14:18:08.093Z,58.3
2017-03-20T14:19:18.062Z,58.28
2017-03-20T14:20:28.336Z,58.56
2017-03-20T14:21:38.290Z,58.28
2017-03-20T14:22:48.243Z,58.18
2017-03-20T14:23:57.893Z,59.03
2017-03-20T14:25:08.161Z,59.86
2017-03-20T14:26:18.158Z,60.63
2017-03-20T14:27:28.111Z,60.63
2017-03-20T14:28:38.072Z,61
2017-03-20T14:29:48.338Z,61.74
2017-03-20T14:30:58.297Z,61.55
2017-03-20T14:32:08.557Z,61.55
2017-03-20T14:33:18.509Z,61.74
2017-03-20T14:34:28.469Z,62.02
2017-03-20T14:35:38.419Z,62.4
2017-03-20T14:36:48.676Z,63.07
2017-03-20T14:37:58.943Z,63.35
2017-03-20T14:39:09.219Z,63.92
2017-03-20T14:40:19.491Z,64.11
2017-03-20T14:41:29.159Z,64.46
2017-03-20T14:42:39.435Z,64.84
2017-03-20T14:43:49.702Z,65.03
2017-03-20T14:44:59.973Z,65.89
2017-03-20T14:46:10.236Z,65.32
2017-03-20T14:47:20.500Z,65.99
2017-03-20T14:48:30.144Z,66.8
2017-03-20T14:49:39.784Z,66.52
2017-03-20T14:50:49.738Z,67.76
2017-03-20T14:52:00.006Z,67.76
2017-03-20T14:53:10.269Z,68.13
2017-03-20T14:54:20.532Z,68.77
2017-03-20T14:55:30.505Z,68.96
2017-03-20T14:56:40.759Z,69.71
2017-03-20T14:57:51.018Z,70.57
2017-03-20T14:59:01.295Z,71.14
2017-03-20T15:00:11.261Z,70.67
2017-03-20T15:01:21.524Z,71.33
2017-03-20T15:02:31.469Z,72.06
2017-03-20T15:03:41.737Z,72.44
2017-03-20T15:04:52.007Z,72.34
2017-03-20T15:06:01.960Z,73.29
2017-03-20T15:07:11.902Z,73.48
2017-03-20T15:08:21.851Z,73.76